Time;durP1;ratioP1;P1;durP2;ratioP2;P2;SDS_P1;SDS_P2;PMS_P1;PMS_P2;Temp;Humidity;BMP_temperature;BMP_pressure;BME280_temperature;BME280_humidity;BME280_pressure;Samples;Min_cycle;Max_cycle;Signal;HPM_P1;HPM_P2
2021/03/07 00:01:31;;;;;;;27.50;15.97;;;-1.20;99.90;;;;;;4991982;28;20212;-65
2021/03/07 00:03:56;;;;;;;16.87;10.40;;;-1.30;99.90;;;;;;4991704;28;20216;-65
2021/03/07 00:06:22;;;;;;;18.90;11.60;;;-1.30;99.90;;;;;;4992394;28;20181;-65
2021/03/07 00:08:48;;;;;;;13.77;8.87;;;-1.30;99.90;;;;;;4992222;28;20231;-65
2021/03/07 00:11:14;;;;;;;43.20;19.40;;;-1.40;99.90;;;;;;4991538;28;20192;-65
2021/03/07 00:13:39;;;;;;;51.80;23.97;;;-1.40;99.90;;;;;;4991999;28;20203;-64
2021/03/07 00:16:05;;;;;;;28.17;13.27;;;-1.00;99.90;;;;;;4991958;28;20195;-65
2021/03/07 00:18:31;;;;;;;22.47;13.13;;;-1.40;99.90;;;;;;4992056;28;20679;-65
2021/03/07 00:20:56;;;;;;;46.00;20.07;;;-1.40;99.90;;;;;;4991722;28;20228;-65
2021/03/07 00:23:22;;;;;;;13.90;7.77;;;-1.40;99.90;;;;;;4991887;28;20245;-64
2021/03/07 00:25:48;;;;;;;9.97;6.97;;;-1.50;99.90;;;;;;4974553;28;20198;-65
2021/03/07 00:28:13;;;;;;;11.00;7.63;;;-1.50;99.90;;;;;;4991860;28;20618;-65
2021/03/07 00:30:39;;;;;;;13.73;8.70;;;-1.40;99.90;;;;;;4991960;28;20223;-64
2021/03/07 00:33:05;;;;;;;12.57;8.10;;;-1.40;99.90;;;;;;4991446;28;20294;-64
2021/03/07 00:35:30;;;;;;;14.67;9.13;;;-1.30;99.90;;;;;;4992167;28;20177;-64
2021/03/07 00:37:56;;;;;;;8.73;6.83;;;-1.40;99.90;;;;;;4991643;28;20247;-64
2021/03/07 00:40:22;;;;;;;25.00;11.40;;;-1.40;99.90;;;;;;4991699;28;20196;-65
2021/03/07 00:42:49;;;;;;;20.67;9.37;;;-1.30;99.90;;;;;;4991778;28;20201;-64
2021/03/07 00:45:18;;;;;;;12.20;8.33;;;-1.50;99.90;;;;;;4991663;28;20271;-64
2021/03/07 00:47:44;;;;;;;19.83;10.37;;;-1.50;99.90;;;;;;4991775;28;20192;-63
2021/03/07 00:50:09;;;;;;;14.83;8.87;;;-1.60;99.90;;;;;;4991435;28;20185;-65
2021/03/07 00:52:35;;;;;;;19.50;10.00;;;-1.60;99.90;;;;;;4991801;28;20197;-64
2021/03/07 00:55:01;;;;;;;28.20;15.90;;;-1.70;99.90;;;;;;4991586;28;20185;-64
2021/03/07 00:57:27;;;;;;;47.30;24.77;;;-1.70;99.90;;;;;;4992037;28;20180;-65
2021/03/07 00:59:52;;;;;;;17.20;10.10;;;-1.70;99.90;;;;;;4991032;28;20177;-64
2021/03/07 01:02:18;;;;;;;15.17;9.47;;;-1.70;99.90;;;;;;4991824;28;20569;-65
2021/03/07 01:04:43;;;;;;;15.87;11.30;;;-1.70;99.90;;;;;;4991617;28;20204;-64
2021/03/07 01:07:09;;;;;;;10.90;7.00;;;-1.70;99.90;;;;;;4991730;28;20173;-66
2021/03/07 01:09:35;;;;;;;14.50;8.00;;;-1.70;99.90;;;;;;4992613;28;20752;-65
2021/03/07 01:12:01;;;;;;;9.73;8.50;;;-1.60;99.90;;;;;;4994826;28;20181;-65
2021/03/07 01:14:26;;;;;;;13.17;8.37;;;-1.60;99.90;;;;;;4995024;28;20212;-63
2021/03/07 01:16:52;;;;;;;13.20;8.50;;;-1.50;99.90;;;;;;4995186;28;20671;-65
2021/03/07 01:19:18;;;;;;;13.77;8.80;;;-1.50;99.90;;;;;;4994749;28;20181;-64
2021/03/07 01:21:43;;;;;;;11.00;9.00;;;-1.50;99.90;;;;;;4994607;28;20303;-65
2021/03/07 01:24:09;;;;;;;14.87;9.67;;;-1.50;99.90;;;;;;4994835;28;20303;-65
2021/03/07 01:26:35;;;;;;;14.03;9.60;;;-1.50;99.90;;;;;;4995124;28;20176;-65
2021/03/07 01:29:00;;;;;;;12.90;9.73;;;-1.50;99.90;;;;;;4994683;28;20187;-65
2021/03/07 01:31:26;;;;;;;13.17;10.00;;;-1.50;99.90;;;;;;4994665;28;20184;-65
2021/03/07 01:33:52;;;;;;;11.83;9.23;;;-1.50;99.90;;;;;;4994626;28;20220;-64
2021/03/07 01:36:17;;;;;;;13.93;10.07;;;-1.60;99.90;;;;;;4995056;28;20232;-64
2021/03/07 01:38:43;;;;;;;13.37;9.60;;;-1.60;99.90;;;;;;4994744;28;20220;-65
2021/03/07 01:41:08;;;;;;;12.67;9.43;;;-1.60;99.90;;;;;;4994341;28;20212;-65
2021/03/07 01:43:34;;;;;;;16.63;10.13;;;-1.60;99.90;;;;;;4994567;28;20240;-65
2021/03/07 01:46:00;;;;;;;13.50;9.03;;;-1.60;99.90;;;;;;4994589;28;20805;-65
2021/03/07 01:48:25;;;;;;;13.93;8.10;;;-1.60;99.90;;;;;;4994451;28;20212;-64
2021/03/07 01:50:53;;;;;;;17.83;10.13;;;-1.50;99.90;;;;;;4994116;28;20264;-65
2021/03/07 01:53:20;;;;;;;14.50;11.17;;;-1.50;99.90;;;;;;4994062;28;20262;-64
2021/03/07 01:55:46;;;;;;;17.83;10.27;;;-1.50;99.90;;;;;;4994405;28;20173;-64
2021/03/07 01:58:19;;;;;;;18.50;9.97;;;-1.50;99.90;;;;;;4994179;28;20184;-65
2021/03/07 02:00:46;;;;;;;13.47;10.07;;;-1.60;99.90;;;;;;4994011;28;20200;-65
2021/03/07 02:03:12;;;;;;;13.47;10.57;;;-1.60;99.90;;;;;;4994080;28;20209;-65
2021/03/07 02:05:38;;;;;;;12.47;9.87;;;-1.60;99.90;;;;;;4994498;28;20180;-65
2021/03/07 02:08:05;;;;;;;15.00;11.10;;;-1.50;99.90;;;;;;4993907;28;20551;-65
2021/03/07 02:10:33;;;;;;;15.50;10.13;;;-1.50;99.90;;;;;;4993833;28;20189;-65
2021/03/07 02:13:21;;;;;;;16.00;10.43;;;-1.50;99.90;;;;;;4993849;28;20563;-65
2021/03/07 02:15:50;;;;;;;16.07;11.10;;;-1.50;99.90;;;;;;4993744;28;20191;-65
2021/03/07 02:18:17;;;;;;;15.07;10.17;;;-1.60;99.90;;;;;;4994111;28;20176;-65
2021/03/07 02:20:51;;;;;;;18.13;11.33;;;-1.60;99.90;;;;;;4993244;28;20208;-65
2021/03/07 02:23:21;;;;;;;15.80;10.50;;;-1.70;99.90;;;;;;4993710;28;20635;-65
2021/03/07 02:25:48;;;;;;;13.90;10.30;;;-1.70;99.90;;;;;;4993980;28;20173;-65
2021/03/07 02:28:14;;;;;;;13.93;10.07;;;-1.80;99.90;;;;;;4992924;28;20184;-64
2021/03/07 02:30:40;;;;;;;18.07;11.03;;;-1.80;99.90;;;;;;4993020;28;20192;-64
2021/03/07 02:33:23;;;;;;;15.90;10.53;;;-1.80;99.90;;;;;;5014457;22;20204;-63
2021/03/07 02:36:04;;;;;;;19.00;10.90;;;-1.80;99.90;;;;;;4954929;29;20186;-63
2021/03/07 02:38:33;;;;;;;16.77;9.40;;;-1.80;99.90;;;;;;4965852;28;20180;-63
2021/03/07 02:41:00;;;;;;;16.13;10.97;;;-1.80;99.90;;;;;;4973647;28;20201;-63
2021/03/07 02:43:28;;;;;;;12.77;10.67;;;-1.90;99.90;;;;;;4973836;28;20568;-61
2021/03/07 02:45:55;;;;;;;14.63;10.30;;;-1.90;99.90;;;;;;4973940;28;20237;-63
2021/03/07 02:48:23;;;;;;;18.40;10.50;;;-1.90;99.90;;;;;;4978159;28;20610;-63
2021/03/07 02:50:50;;;;;;;12.90;10.73;;;-1.90;99.90;;;;;;4993002;28;20714;-63
2021/03/07 02:53:23;;;;;;;14.57;9.83;;;-2.00;99.90;;;;;;4988023;28;20632;-63
2021/03/07 02:56:05;;;;;;;13.53;9.90;;;-2.00;99.90;;;;;;4993212;28;20177;-63
2021/03/07 02:58:32;;;;;;;18.67;11.30;;;-2.10;99.90;;;;;;4984282;28;20182;-63
2021/03/07 03:01:04;;;;;;;17.10;10.77;;;-2.20;99.90;;;;;;4973337;28;20444;-63
2021/03/07 03:03:34;;;;;;;16.53;10.87;;;-2.20;99.90;;;;;;4983373;28;20207;-67
2021/03/07 03:06:00;;;;;;;15.03;10.73;;;-2.30;99.90;;;;;;4995055;28;20169;-65
2021/03/07 03:08:29;;;;;;;14.23;9.67;;;-2.30;99.90;;;;;;4996352;28;20173;-66
2021/03/07 03:10:56;;;;;;;19.57;12.37;;;-2.30;99.90;;;;;;4994659;28;20176;-67
2021/03/07 03:13:22;;;;;;;17.60;11.67;;;-2.50;99.90;;;;;;4957459;29;20602;-67
2021/03/07 03:15:50;;;;;;;14.97;10.77;;;-2.40;99.90;;;;;;4957423;29;20241;-69
2021/03/07 03:18:17;;;;;;;16.07;10.33;;;-2.40;99.90;;;;;;4958251;28;20729;-67
2021/03/07 03:20:44;;;;;;;17.17;11.20;;;-2.50;99.90;;;;;;4976050;28;20193;-68
2021/03/07 03:23:09;;;;;;;16.57;11.73;;;-2.50;99.90;;;;;;4976360;28;20288;-67
2021/03/07 03:25:35;;;;;;;20.27;11.17;;;-2.50;99.90;;;;;;4975800;28;20248;-67
2021/03/07 03:28:01;;;;;;;18.00;10.20;;;-2.40;99.90;;;;;;4991069;28;20192;-65
2021/03/07 03:30:27;;;;;;;18.57;11.53;;;-2.50;99.90;;;;;;4995619;28;20177;-66
2021/03/07 03:32:53;;;;;;;16.60;11.13;;;-2.50;99.90;;;;;;4993306;28;20227;-67
2021/03/07 03:35:20;;;;;;;16.27;10.30;;;-2.50;99.90;;;;;;4995754;28;20694;-66
2021/03/07 03:37:48;;;;;;;18.63;11.10;;;-2.50;99.90;;;;;;4995704;28;20200;-66
2021/03/07 03:40:21;;;;;;;19.67;11.30;;;-2.40;99.90;;;;;;4985332;28;20185;-68
2021/03/07 03:42:55;;;;;;;17.23;11.10;;;-2.40;99.90;;;;;;4976490;28;20169;-70
2021/03/07 03:45:21;;;;;;;24.77;11.27;;;-2.30;99.90;;;;;;4986328;28;20181;-66
2021/03/07 03:47:53;;;;;;;15.30;11.13;;;-2.30;99.90;;;;;;4995752;28;20173;-68
2021/03/07 03:50:20;;;;;;;18.57;12.53;;;-2.30;99.90;;;;;;4968704;28;20192;-67
2021/03/07 03:52:48;;;;;;;14.20;10.23;;;-2.20;99.90;;;;;;4976516;28;20169;-69
2021/03/07 03:55:27;;;;;;;13.70;11.17;;;-2.20;99.90;;;;;;4982980;28;20173;-65
2021/03/07 03:57:57;;;;;;;12.67;10.67;;;-2.30;99.90;;;;;;4995615;28;20168;-65
2021/03/07 04:00:26;;;;;;;14.63;11.70;;;-2.30;99.90;;;;;;4976659;28;20273;-66
2021/03/07 04:02:57;;;;;;;16.40;10.93;;;-2.20;99.90;;;;;;4989587;28;20185;-67
2021/03/07 04:05:26;;;;;;;13.67;11.57;;;-2.20;99.90;;;;;;4975632;28;20177;-68
2021/03/07 04:07:52;;;;;;;19.10;10.80;;;-2.30;99.90;;;;;;4962990;28;20646;-68
2021/03/07 04:10:19;;;;;;;13.57;10.37;;;-2.30;99.90;;;;;;4994242;28;20177;-66
2021/03/07 04:12:47;;;;;;;18.50;11.70;;;-2.30;99.90;;;;;;4994090;28;20233;-67
2021/03/07 04:15:17;;;;;;;20.13;11.87;;;-2.30;99.90;;;;;;4994509;28;20192;-66
2021/03/07 04:17:45;;;;;;;15.83;11.67;;;-2.30;99.90;;;;;;4992091;28;20191;-66
2021/03/07 04:20:11;;;;;;;19.87;10.93;;;-2.30;99.90;;;;;;4957523;28;20271;-67
2021/03/07 04:22:37;;;;;;;14.33;11.33;;;-2.40;99.90;;;;;;4975711;28;20211;-67
2021/03/07 04:25:04;;;;;;;19.30;12.97;;;-2.40;99.90;;;;;;4975145;28;20189;-66
2021/03/07 04:27:31;;;;;;;16.27;10.73;;;-2.40;99.90;;;;;;4974864;28;20193;-68
2021/03/07 04:29:57;;;;;;;18.17;11.07;;;-2.50;99.90;;;;;;4975936;28;20176;-66
2021/03/07 04:32:23;;;;;;;14.73;10.30;;;-2.50;99.90;;;;;;4992974;28;20251;-66
2021/03/07 04:34:49;;;;;;;16.23;11.37;;;-2.60;99.90;;;;;;4994211;28;20757;-67
2021/03/07 04:37:15;;;;;;;18.60;11.23;;;-2.70;99.90;;;;;;4976477;28;20220;-65
2021/03/07 04:39:41;;;;;;;14.93;10.83;;;-2.80;99.90;;;;;;4974846;28;20216;-65
2021/03/07 04:42:07;;;;;;;21.23;11.33;;;-2.80;99.90;;;;;;4974363;28;20710;-66
2021/03/07 04:44:33;;;;;;;19.00;10.53;;;-2.80;99.90;;;;;;4976104;28;20206;-67
2021/03/07 04:46:59;;;;;;;14.43;10.77;;;-2.90;99.90;;;;;;4992659;28;20646;-66
2021/03/07 04:49:25;;;;;;;16.33;11.37;;;-2.90;99.90;;;;;;4997052;28;20180;-63
2021/03/07 04:51:51;;;;;;;15.00;10.57;;;-3.00;99.90;;;;;;4982785;28;20545;-63
2021/03/07 04:54:17;;;;;;;16.60;11.73;;;-3.10;99.90;;;;;;4977081;28;20205;-63
2021/03/07 04:56:43;;;;;;;18.10;11.47;;;-3.10;99.90;;;;;;4989245;28;20189;-63
2021/03/07 04:59:09;;;;;;;20.90;12.53;;;-3.00;99.90;;;;;;4976243;28;20268;-63
2021/03/07 05:01:36;;;;;;;20.00;11.80;;;-3.10;99.90;;;;;;4985105;28;20688;-63
2021/03/07 05:04:02;;;;;;;16.93;11.80;;;-3.10;99.90;;;;;;4995005;28;20208;-63
2021/03/07 05:06:28;;;;;;;21.00;10.70;;;-3.10;99.90;;;;;;4986775;28;20178;-63
2021/03/07 05:08:55;;;;;;;16.53;12.13;;;-3.10;99.90;;;;;;4975563;28;20181;-63
2021/03/07 05:11:21;;;;;;;16.13;11.27;;;-3.10;99.90;;;;;;4981203;28;20200;-63
2021/03/07 05:13:50;;;;;;;17.47;11.37;;;-3.10;99.90;;;;;;4994268;28;20196;-63
2021/03/07 05:16:17;;;;;;;19.27;12.30;;;-3.20;99.90;;;;;;4971775;28;20190;-63
2021/03/07 05:18:45;;;;;;;17.40;10.90;;;-3.20;99.90;;;;;;4975754;28;20217;-63
2021/03/07 05:21:11;;;;;;;22.27;11.43;;;-3.10;99.90;;;;;;4979229;28;20308;-63
2021/03/07 05:23:37;;;;;;;25.40;13.13;;;-3.20;99.90;;;;;;4994913;28;20267;-63
2021/03/07 05:26:04;;;;;;;15.43;10.60;;;-3.20;99.90;;;;;;4991746;28;20176;-63
2021/03/07 05:28:30;;;;;;;15.83;11.70;;;-3.20;99.90;;;;;;4975567;28;20178;-63
2021/03/07 05:30:55;;;;;;;20.03;13.97;;;-3.20;99.90;;;;;;4976106;28;20931;-63
2021/03/07 05:33:21;;;;;;;18.37;11.73;;;-3.20;99.90;;;;;;4994622;28;20283;-63
2021/03/07 05:35:48;;;;;;;19.20;12.83;;;-3.20;99.90;;;;;;4994574;28;20177;-63
2021/03/07 05:38:14;;;;;;;16.70;12.43;;;-3.30;99.90;;;;;;4993665;28;20239;-63
2021/03/07 05:40:40;;;;;;;18.07;11.67;;;-3.30;99.90;;;;;;4994434;28;20204;-63
2021/03/07 05:43:07;;;;;;;19.70;12.43;;;-3.20;99.90;;;;;;4976876;28;20658;-63
2021/03/07 05:45:33;;;;;;;19.07;13.20;;;-3.30;99.90;;;;;;4975302;28;20196;-63
2021/03/07 05:47:59;;;;;;;17.30;12.87;;;-3.30;99.90;;;;;;4990836;28;20639;-63
2021/03/07 05:50:25;;;;;;;25.30;13.37;;;-3.30;99.90;;;;;;4981131;28;20189;-63
2021/03/07 05:52:56;;;;;;;17.93;12.43;;;-3.30;99.90;;;;;;4974769;28;20182;-63
2021/03/07 05:55:23;;;;;;;21.13;12.73;;;-3.20;99.90;;;;;;4986249;28;20189;-62
2021/03/07 05:57:49;;;;;;;17.63;12.50;;;-3.30;99.90;;;;;;4994425;28;20260;-63
2021/03/07 06:00:17;;;;;;;17.97;12.23;;;-3.30;99.90;;;;;;4986416;28;20189;-63
2021/03/07 06:02:43;;;;;;;25.30;13.23;;;-3.30;99.90;;;;;;4975037;28;20243;-63
2021/03/07 06:05:10;;;;;;;28.57;13.33;;;-3.30;99.90;;;;;;4983501;28;20232;-63
2021/03/07 06:07:36;;;;;;;22.83;13.23;;;-3.30;99.90;;;;;;4990669;28;20193;-63
2021/03/07 06:10:21;;;;;;;18.83;12.50;;;-3.30;99.90;;;;;;4974170;28;20550;-63
2021/03/07 06:13:11;;;;;;;21.77;13.17;;;-3.30;99.90;;;;;;4978793;28;20185;-63
2021/03/07 06:15:42;;;;;;;20.57;12.83;;;-3.30;99.90;;;;;;4994169;28;20606;-63
2021/03/07 06:18:18;;;;;;;23.53;14.57;;;-3.30;99.90;;;;;;4992063;28;20177;-63
2021/03/07 06:20:45;;;;;;;24.07;13.70;;;-3.20;99.90;;;;;;4993861;28;20653;-63
2021/03/07 06:23:11;;;;;;;22.70;15.13;;;-3.20;99.90;;;;;;4984438;28;20280;-63
2021/03/07 06:25:51;;;;;;;29.07;14.93;;;-3.20;99.90;;;;;;4974495;28;20784;-63
2021/03/07 06:28:24;;;;;;;26.03;14.23;;;-3.10;99.90;;;;;;4983038;28;20187;-63
2021/03/07 06:30:51;;;;;;;24.57;15.47;;;-3.10;99.90;;;;;;4993221;28;20242;-63
2021/03/07 06:33:35;;;;;;;26.63;14.83;;;-3.00;99.90;;;;;;4984564;28;20235;-63
2021/03/07 06:36:23;;;;;;;20.73;13.37;;;-3.00;99.90;;;;;;4973946;28;20247;-63
2021/03/07 06:38:50;;;;;;;24.50;15.13;;;-3.00;99.90;;;;;;4986425;28;20191;-63
2021/03/07 06:41:20;;;;;;;26.83;15.83;;;-2.80;99.90;;;;;;4993173;28;20208;-63
2021/03/07 06:43:47;;;;;;;24.70;14.70;;;-2.70;99.90;;;;;;4981800;28;20206;-63
2021/03/07 06:46:29;;;;;;;25.27;14.30;;;-2.70;99.90;;;;;;4982429;28;20185;-63
2021/03/07 06:48:55;;;;;;;18.23;13.43;;;-2.70;99.90;;;;;;4993772;28;20169;-63
2021/03/07 06:51:34;;;;;;;20.53;13.80;;;-2.60;99.90;;;;;;4975230;28;20189;-63
2021/03/07 06:54:16;;;;;;;22.30;14.97;;;-2.60;99.90;;;;;;4973629;28;20610;-63
2021/03/07 06:56:47;;;;;;;21.50;13.93;;;-2.50;99.90;;;;;;4970183;28;20194;-63
2021/03/07 06:59:14;;;;;;;20.03;14.67;;;-2.40;99.90;;;;;;4978780;28;20275;-63
2021/03/07 07:01:41;;;;;;;23.23;15.60;;;-2.30;99.90;;;;;;4989396;28;20212;-63
2021/03/07 07:04:07;;;;;;;20.57;13.33;;;-2.20;99.90;;;;;;4974191;28;20240;-63
2021/03/07 07:06:33;;;;;;;20.97;14.10;;;-2.20;99.90;;;;;;4975498;28;20256;-63
2021/03/07 07:09:00;;;;;;;20.30;14.50;;;-2.10;99.90;;;;;;4992639;28;20255;-63
2021/03/07 07:11:27;;;;;;;25.83;16.77;;;-2.00;99.90;;;;;;4989640;28;20280;-63
2021/03/07 07:13:53;;;;;;;38.67;21.17;;;-1.90;99.90;;;;;;4973776;28;20596;-63
2021/03/07 07:16:19;;;;;;;36.37;24.00;;;-1.60;99.90;;;;;;4973702;28;20197;-63
2021/03/07 07:18:49;;;;;;;38.03;25.57;;;-1.10;99.90;;;;;;4992684;28;20188;-63
2021/03/07 07:21:17;;;;;;;40.43;24.97;;;-0.50;99.90;;;;;;4991869;28;20291;-63
2021/03/07 07:23:44;;;;;;;32.80;19.70;;;0.30;99.90;;;;;;4986667;28;20205;-63
2021/03/07 07:26:10;;;;;;;25.87;17.40;;;1.10;99.90;;;;;;4992295;28;20164;-63
2021/03/07 07:28:36;;;;;;;28.13;17.17;;;1.80;99.90;;;;;;4974048;28;20647;-63
2021/03/07 07:31:14;;;;;;;25.23;15.90;;;2.50;99.90;;;;;;4972893;28;20181;-64
2021/03/07 07:34:00;;;;;;;16.43;12.47;;;3.20;99.90;;;;;;4990826;28;20228;-64
2021/03/07 07:36:41;;;;;;;14.67;10.33;;;3.60;99.90;;;;;;4992130;28;20168;-63
2021/03/07 07:39:11;;;;;;;21.83;13.00;;;3.90;99.90;;;;;;4963935;28;20192;-64
2021/03/07 07:41:39;;;;;;;17.57;12.60;;;4.00;99.90;;;;;;4973144;28;20201;-63
2021/03/07 07:44:08;;;;;;;16.53;12.50;;;4.00;99.90;;;;;;4991953;28;20673;-63
2021/03/07 07:46:34;;;;;;;18.07;10.60;;;4.00;99.90;;;;;;4991970;28;20211;-63
2021/03/07 07:49:00;;;;;;;14.97;9.77;;;4.10;99.90;;;;;;4972855;28;20192;-64
2021/03/07 07:51:34;;;;;;;13.27;10.40;;;4.40;99.90;;;;;;4972105;28;20208;-63
2021/03/07 07:54:01;;;;;;;16.27;10.93;;;4.30;99.90;;;;;;4990981;28;20230;-63
2021/03/07 07:56:37;;;;;;;18.50;10.83;;;4.50;99.90;;;;;;4991759;28;20212;-64
2021/03/07 07:59:04;;;;;;;11.97;9.13;;;5.00;99.90;;;;;;4973236;28;20550;-64
2021/03/07 08:01:54;;;;;;;15.83;10.13;;;5.50;99.90;;;;;;4972120;28;20238;-64
2021/03/07 08:04:28;;;;;;;13.80;9.13;;;6.00;99.90;;;;;;4991454;28;20204;-64
2021/03/07 08:07:01;;;;;;;13.80;9.13;;;6.50;99.90;;;;;;4991285;28;20176;-64
2021/03/07 08:09:45;;;;;;;13.20;9.63;;;7.00;99.90;;;;;;4972563;28;20252;-64
2021/03/07 08:12:50;;;;;;;21.27;11.37;;;7.50;99.90;;;;;;4983533;28;20275;-64
2021/03/07 08:15:27;;;;;;;12.87;9.43;;;8.00;99.90;;;;;;4991338;28;20649;-64
2021/03/07 08:17:57;;;;;;;12.73;8.83;;;8.30;99.90;;;;;;4973960;28;20639;-64
2021/03/07 08:20:40;;;;;;;13.50;8.93;;;8.60;99.90;;;;;;4977200;28;20255;-64
2021/03/07 08:23:16;;;;;;;12.47;8.97;;;8.70;99.90;;;;;;4979235;28;20185;-64
2021/03/07 08:25:50;;;;;;;11.77;8.77;;;8.60;99.90;;;;;;4985315;28;20215;-64
2021/03/07 08:28:28;;;;;;;12.63;9.40;;;8.70;99.90;;;;;;4998109;28;20187;-64
2021/03/07 08:30:55;;;;;;;13.27;9.03;;;8.90;99.90;;;;;;4989809;28;20191;-64
2021/03/07 08:36:10;;;;;;;11.23;8.07;;;9.40;99.90;;;;;;5017777;22;20651;-66
2021/03/07 08:38:57;;;;;;;12.10;8.57;;;9.80;99.90;;;;;;4998714;28;20243;-65
2021/03/07 08:41:46;;;;;;;12.40;8.90;;;10.00;99.90;;;;;;4983914;28;20219;-65
2021/03/07 08:44:16;;;;;;;14.37;9.23;;;10.40;99.90;;;;;;4997672;28;20577;-64
2021/03/07 08:46:42;;;;;;;12.67;9.03;;;10.20;99.90;;;;;;4997876;28;20177;-65
2021/03/07 08:49:07;;;;;;;11.87;8.00;;;9.90;99.90;;;;;;4997228;28;20591;-65
2021/03/07 08:51:37;;;;;;;11.43;8.60;;;9.80;99.90;;;;;;4998245;28;20590;-65
2021/03/07 08:54:13;;;;;;;12.30;7.97;;;9.80;99.90;;;;;;4997453;28;20189;-65
2021/03/07 08:56:41;;;;;;;10.50;8.17;;;9.70;99.90;;;;;;4998150;28;20183;-65
2021/03/07 08:59:09;;;;;;;11.30;8.07;;;9.80;99.90;;;;;;4997722;28;20172;-66
2021/03/07 09:01:35;;;;;;;13.43;8.50;;;10.20;99.90;;;;;;4997961;28;20200;-65
2021/03/07 09:04:11;;;;;;;12.77;8.57;;;10.70;99.90;;;;;;4997487;28;20199;-64
2021/03/07 09:06:43;;;;;;;11.57;8.67;;;11.00;99.90;;;;;;4998038;28;20210;-65
2021/03/07 09:09:21;;;;;;;15.53;9.10;;;11.00;99.90;;;;;;4997878;28;20642;-65
2021/03/07 09:11:57;;;;;;;10.80;8.60;;;11.00;99.90;;;;;;4999171;28;20291;-64
2021/03/07 09:14:32;;;;;;;10.47;8.37;;;11.20;99.90;;;;;;4997196;28;20261;-64
2021/03/07 09:16:59;;;;;;;12.77;8.53;;;11.20;99.90;;;;;;4997343;28;20176;-64
2021/03/07 09:19:37;;;;;;;12.27;8.13;;;11.30;99.90;;;;;;4997741;28;20188;-64
2021/03/07 09:22:10;;;;;;;11.00;7.63;;;11.20;99.90;;;;;;4997283;28;20200;-64
2021/03/07 09:24:36;;;;;;;10.43;7.67;;;11.20;99.90;;;;;;4996940;28;20204;-66
2021/03/07 09:27:12;;;;;;;10.33;7.27;;;10.90;99.90;;;;;;4997754;28;20174;-66
2021/03/07 09:30:10;;;;;;;9.47;7.10;;;11.10;99.90;;;;;;4997671;28;20180;-64
2021/03/07 09:32:50;;;;;;;9.07;7.13;;;11.30;99.90;;;;;;4994617;28;20223;-64
2021/03/07 09:35:28;;;;;;;12.30;7.60;;;11.70;99.90;;;;;;4994351;28;20243;-65
2021/03/07 09:38:05;;;;;;;9.50;7.03;;;11.80;99.90;;;;;;4994538;28;20184;-64
2021/03/07 09:40:39;;;;;;;10.13;6.97;;;12.00;99.90;;;;;;4994175;28;20204;-65
2021/03/07 09:43:06;;;;;;;10.37;6.60;;;12.20;99.90;;;;;;4994093;28;20628;-65
2021/03/07 09:45:32;;;;;;;8.63;6.70;;;12.30;99.90;;;;;;4994376;28;20205;-64
2021/03/07 09:47:58;;;;;;;7.20;6.50;;;11.80;99.90;;;;;;4993857;28;20176;-66
2021/03/07 09:50:25;;;;;;;9.63;6.50;;;11.40;99.50;;;;;;4994082;28;20554;-65
2021/03/07 09:52:51;;;;;;;7.13;6.43;;;11.60;99.90;;;;;;4994044;28;20235;-65
2021/03/07 09:55:30;;;;;;;9.27;6.50;;;11.90;99.90;;;;;;4993860;28;20200;-66
2021/03/07 09:58:06;;;;;;;9.80;6.87;;;12.30;99.90;;;;;;4993269;28;20219;-64
2021/03/07 10:00:34;;;;;;;9.27;6.07;;;12.60;99.90;;;;;;4993700;28;20185;-65
2021/03/07 10:03:00;;;;;;;7.90;6.40;;;12.90;99.90;;;;;;4993649;28;20180;-65
2021/03/07 10:05:25;;;;;;;8.30;6.93;;;12.70;99.10;;;;;;4994095;28;20201;-66
2021/03/07 10:07:51;;;;;;;7.73;6.47;;;12.60;99.90;;;;;;4994081;28;20580;-65
2021/03/07 10:10:21;;;;;;;9.03;6.40;;;12.80;99.40;;;;;;4993735;28;20180;-66
2021/03/07 10:12:55;;;;;;;9.33;7.40;;;12.30;99.30;;;;;;4993736;28;20673;-66
2021/03/07 10:15:33;;;;;;;9.13;6.50;;;12.20;99.40;;;;;;4993566;28;20209;-65
2021/03/07 10:18:18;;;;;;;9.60;7.20;;;12.30;99.90;;;;;;4992802;28;20262;-65
2021/03/07 10:20:54;;;;;;;9.37;7.50;;;12.40;99.10;;;;;;4976055;28;20254;-66
2021/03/07 10:23:24;;;;;;;9.83;7.43;;;11.80;98.20;;;;;;4993823;28;20188;-65
2021/03/07 10:25:50;;;;;;;8.80;7.10;;;11.40;99.10;;;;;;4993600;28;20192;-66
2021/03/07 10:28:25;;;;;;;9.40;6.73;;;11.10;98.70;;;;;;4993609;28;20654;-66
2021/03/07 10:30:52;;;;;;;9.00;6.50;;;11.00;98.50;;;;;;4993674;28;20243;-65
2021/03/07 10:33:26;;;;;;;10.83;7.83;;;10.70;98.40;;;;;;4993685;28;20327;-66
2021/03/07 10:36:12;;;;;;;9.40;6.33;;;10.50;98.50;;;;;;4993453;28;20185;-64
2021/03/07 10:38:43;;;;;;;9.10;6.20;;;10.30;98.90;;;;;;4993648;28;20264;-65
2021/03/07 10:41:20;;;;;;;9.40;7.40;;;10.40;98.30;;;;;;4992801;28;20204;-64
2021/03/07 10:43:51;;;;;;;9.20;6.70;;;10.80;99.00;;;;;;4992793;28;20701;-65
2021/03/07 10:46:36;;;;;;;8.63;5.80;;;11.40;99.90;;;;;;4992819;28;20649;-66
2021/03/07 10:49:07;;;;;;;9.60;6.57;;;11.50;98.50;;;;;;4992797;28;20195;-65
2021/03/07 10:51:33;;;;;;;10.47;7.23;;;11.50;99.90;;;;;;4992961;28;20468;-65
2021/03/07 10:53:59;;;;;;;7.57;6.77;;;11.30;99.90;;;;;;4992986;28;20212;-64
2021/03/07 10:56:46;;;;;;;7.77;6.07;;;11.50;99.90;;;;;;4992868;28;20203;-65
2021/03/07 10:59:12;;;;;;;11.43;8.80;;;11.60;99.90;;;;;;4993245;28;20267;-65
2021/03/07 11:01:40;;;;;;;9.87;8.47;;;11.20;99.90;;;;;;4992474;28;20283;-65
2021/03/07 11:04:06;;;;;;;11.30;7.03;;;11.30;99.90;;;;;;4992365;28;20205;-65
2021/03/07 11:06:31;;;;;;;8.87;7.23;;;11.60;99.90;;;;;;4992659;28;20592;-65
2021/03/07 11:08:57;;;;;;;9.60;6.93;;;11.50;99.90;;;;;;4992638;28;20185;-65
2021/03/07 11:11:22;;;;;;;9.43;6.23;;;11.20;99.90;;;;;;4992423;28;20188;-65
2021/03/07 11:13:48;;;;;;;9.33;6.73;;;11.00;99.90;;;;;;4992365;28;20594;-65
2021/03/07 11:16:14;;;;;;;8.50;7.03;;;11.00;99.90;;;;;;4992278;28;20267;-65
2021/03/07 11:18:39;;;;;;;8.57;6.63;;;11.40;99.90;;;;;;4992254;28;20673;-65
2021/03/07 11:21:06;;;;;;;8.60;6.90;;;11.60;99.90;;;;;;4992248;28;20208;-66
2021/03/07 11:23:33;;;;;;;8.87;6.70;;;11.60;99.90;;;;;;4992365;28;20180;-66
2021/03/07 11:25:59;;;;;;;8.73;6.70;;;11.70;99.90;;;;;;4992428;28;20581;-66
2021/03/07 11:28:25;;;;;;;11.13;8.33;;;11.60;99.90;;;;;;4992067;28;20184;-66
2021/03/07 11:30:50;;;;;;;9.10;7.20;;;11.60;99.90;;;;;;4992221;28;20196;-65
2021/03/07 11:33:18;;;;;;;10.03;7.00;;;11.60;99.90;;;;;;4992119;28;20192;-65
2021/03/07 11:35:43;;;;;;;13.70;7.10;;;11.80;99.90;;;;;;4974951;28;20619;-65
2021/03/07 11:38:09;;;;;;;11.17;6.80;;;12.30;99.90;;;;;;4991943;28;20185;-65
2021/03/07 11:40:35;;;;;;;7.90;6.30;;;12.50;99.90;;;;;;4991890;28;20189;-64
2021/03/07 11:43:00;;;;;;;9.00;7.13;;;12.20;99.90;;;;;;4992025;28;20212;-65
2021/03/07 11:45:26;;;;;;;11.30;8.80;;;11.80;99.90;;;;;;4992375;28;20192;-64
2021/03/07 11:47:52;;;;;;;12.07;8.47;;;11.60;99.90;;;;;;4992001;28;20180;-65
2021/03/07 11:50:18;;;;;;;12.27;8.13;;;11.70;99.90;;;;;;4991831;28;20180;-65
2021/03/07 11:52:43;;;;;;;11.80;10.07;;;11.90;99.90;;;;;;4991674;28;20593;-66
2021/03/07 11:55:10;;;;;;;10.97;7.67;;;12.20;99.90;;;;;;4991159;28;20200;-65
2021/03/07 11:57:36;;;;;;;10.13;7.33;;;12.20;99.90;;;;;;4991678;28;20189;-66
2021/03/07 12:00:04;;;;;;;12.13;7.10;;;12.00;99.90;;;;;;4974124;28;20211;-65
2021/03/07 12:02:29;;;;;;;8.40;6.83;;;11.70;99.90;;;;;;4991562;28;20224;-66
2021/03/07 12:04:55;;;;;;;9.23;6.70;;;11.40;99.90;;;;;;4991903;28;20197;-65
2021/03/07 12:07:20;;;;;;;9.67;6.47;;;11.40;99.90;;;;;;4991729;28;20670;-66
2021/03/07 12:09:46;;;;;;;7.53;6.40;;;11.80;99.90;;;;;;4991485;28;20172;-65
2021/03/07 12:12:12;;;;;;;11.73;6.87;;;12.20;99.90;;;;;;4991556;28;20267;-66
2021/03/07 12:14:38;;;;;;;8.17;6.77;;;11.80;99.90;;;;;;4991577;28;20697;-66
2021/03/07 12:17:04;;;;;;;9.00;6.30;;;11.80;99.90;;;;;;4991360;28;20180;-66
2021/03/07 12:19:30;;;;;;;8.97;7.17;;;11.80;98.90;;;;;;4991793;28;20177;-66
2021/03/07 12:21:55;;;;;;;8.87;6.50;;;11.60;99.60;;;;;;4991106;28;20213;-64
2021/03/07 12:24:21;;;;;;;8.87;6.67;;;11.80;99.90;;;;;;4991601;28;20196;-66
2021/03/07 12:26:46;;;;;;;10.53;6.27;;;12.00;99.00;;;;;;4991265;28;20638;-66
2021/03/07 12:29:12;;;;;;;8.60;6.57;;;12.00;99.90;;;;;;4991498;28;20207;-65
2021/03/07 12:31:38;;;;;;;9.80;6.43;;;12.30;99.20;;;;;;4991408;28;20181;-65
2021/03/07 12:34:03;;;;;;;9.50;6.07;;;12.30;99.90;;;;;;4991209;28;20223;-66
2021/03/07 12:36:29;;;;;;;8.10;6.43;;;12.40;99.80;;;;;;4991896;28;20275;-66
2021/03/07 12:38:55;;;;;;;6.53;5.60;;;12.60;99.90;;;;;;4992027;28;20187;-64
2021/03/07 12:41:22;;;;;;;8.97;6.73;;;13.10;99.70;;;;;;4991102;28;20208;-66
2021/03/07 12:43:47;;;;;;;6.80;5.50;;;13.20;99.90;;;;;;4991543;28;20271;-66
2021/03/07 12:46:14;;;;;;;8.67;6.30;;;13.20;99.70;;;;;;4991101;28;20285;-66
2021/03/07 12:48:39;;;;;;;7.50;5.90;;;12.80;99.90;;;;;;4991344;28;20180;-65